Terminal Aerodrome Forecast
Issued by NWS Shreveport, LA

Home | Current Version | Previous Version | Text Only | Print | Product List | Glossary On
Versions: 1 2 3 4 5 6 7 8 9 10 11 12 13
000
FTUS44 KSHV 192300
TAFTXK
TAF
KTXK 192340Z 2000/2024 04004KT P6SM SCT009 OVC012
      TEMPO 2001/2003 BKN009 OVC012
     FM200300 04004KT 5SM BR OVC007
     FM200700 04004KT 3SM BR OVC005
     FM201600 06004KT 6SM BR BKN009 OVC012
     FM201800 07004KT P6SM BKN015
     FM202100 07004KT P6SM BKN025=

USA.gov is the U.S. government's official web portal to all federal, state and local government web resources and services.